KTVF/TVF METAR and TAF weather

Enter ICAO airport designator
Station Type Date Time Source
KTVF METAR 2019/10/18 10:56 UTC NOAA

KTVF 181056Z AUTO 14013KT 10SM CLR 08/04 A2954 RMK AO2 SLP008 T00780039


Station Type Date Time Source
KTVF Decoded METAR 2019/10/18 10:56 UTC NOAA

Thief River Falls, Thief River Falls Regional Airport, MN, United States (KTVF) 48-04N 096-11W
Oct 18, 2019 - 06:56 AM EDT / 2019.10.18 1056 UTC
Wind: from the SE (140 degrees) at 15 MPH (13 KT):0
Visibility: 10 mile(s):0
Sky conditions: clear
Temperature: 46.0 F (7.8 C)
Dew Point: 39.0 F (3.9 C)
Relative Humidity: 76%
Pressure (altimeter): 29.54 in. Hg (1000 hPa)
ob: KTVF 181056Z AUTO 14013KT 10SM CLR 08/04 A2954 RMK AO2 SLP008 T00780039
cycle: 11

Station Type Date Time Source
KTVF TAF 2019/10/18 06:24 UTC NOAA

TAF KTVF 180522Z 1806/1906 14013KT P6SM BKN250 WS020/18045KT
TEMPO 1806/1808 14013G23KT
FM181800 17012G24KT P6SM BKN100
FM182100 18011KT P6SM BKN030
FM190000 23006KT P6SM OVC035

Example: see airport list